Time;durP1;ratioP1;P1;durP2;ratioP2;P2;SDS_P1;SDS_P2;PMS_P1;PMS_P2;Temp;Humidity;BMP_temperature;BMP_pressure;BME280_temperature;BME280_humidity;BME280_pressure;Samples;Min_cycle;Max_cycle;Signal;HPM_P1;HPM_P2
2022/08/18 00:01:21;;;;;;;;;;;;;;;24.89;60.80;101267.72;7285166;19;153914;-61
2022/08/18 00:03:49;;;;;;;;;;;;;;;24.91;60.31;101262.53;7287484;19;152528;-61
2022/08/18 00:06:29;;;;;;;;;;;;;;;24.87;60.33;101261.53;7283296;19;154577;-61
2022/08/18 00:09:01;;;;;;;;;;;;;;;24.88;60.49;101266.03;7284764;19;152232;-61
2022/08/18 00:11:29;;;;;;;;;;;;;;;24.86;60.81;101261.81;7284629;19;155200;-61
2022/08/18 00:14:08;;;;;;;;;;;;;;;24.89;60.57;101267.72;7282756;19;153452;-61
2022/08/18 00:16:35;;;;;;;;;;;;;;;24.84;60.61;101264.16;7282242;19;152329;-61
2022/08/18 00:19:02;;;;;;;;;;;;;;;24.87;60.62;101260.69;7281545;19;153928;-61
2022/08/18 00:21:34;;;;;;;;;;;;;;;24.84;60.81;101262.19;7281685;19;154257;-61
2022/08/18 00:24:01;;;;;;;;;;;;;;;24.87;60.30;101258.72;7279729;19;151921;-61
2022/08/18 00:26:28;;;;;;;;;;;;;;;24.86;60.98;101264.66;7291051;19;153322;-61
2022/08/18 00:29:02;;;;;;;;;;;;;;;24.83;60.71;101263.34;7284392;19;152515;-61
2022/08/18 00:31:30;;;;;;;;;;;;;;;24.87;60.47;101275.66;7283270;19;153139;-61
2022/08/18 00:33:57;;;;;;;;;;;;;;;24.84;60.87;101267.00;7278344;19;152701;-61
2022/08/18 00:36:24;;;;;;;;;;;;;;;24.84;60.80;101270.66;7282305;19;151927;-61
2022/08/18 00:38:51;;;;;;;;;;;;;;;24.83;60.68;101274.63;7283666;19;153873;-61
2022/08/18 00:41:19;;;;;;;;;;;;;;;24.83;60.73;101271.81;7283202;19;154041;-61
2022/08/18 00:43:47;;;;;;;;;;;;;;;24.84;60.57;101269.81;7282523;19;152270;-61
2022/08/18 00:46:16;;;;;;;;;;;;;;;24.84;60.53;101272.66;7285383;19;155031;-61
2022/08/18 00:48:44;;;;;;;;;;;;;;;24.84;60.60;101265.00;7290116;19;153544;-61
2022/08/18 00:51:23;;;;;;;;;;;;;;;24.87;60.55;101272.00;7282979;19;152295;-61
2022/08/18 00:53:57;;;;;;;;;;;;;;;24.83;60.62;101266.16;7282756;19;154165;-61
2022/08/18 00:56:27;;;;;;;;;;;;;;;24.82;60.59;101256.00;7282452;19;153610;-61
2022/08/18 00:58:59;;;;;;;;;;;;;;;24.85;60.46;101257.38;7283720;19;152467;-61
2022/08/18 01:01:31;;;;;;;;;;;;;;;24.80;60.67;101253.50;7284050;19;153662;-61
2022/08/18 01:04:01;;;;;;;;;;;;;;;24.81;60.20;101252.34;7279868;19;153050;-61
2022/08/18 01:06:36;;;;;;;;;;;;;;;24.84;60.37;101241.56;7283014;19;152062;-61
2022/08/18 01:09:03;;;;;;;;;;;;;;;24.80;60.49;101247.03;7291175;19;154498;-61
2022/08/18 01:11:32;;;;;;;;;;;;;;;24.80;60.70;101230.88;7283549;19;152060;-61
2022/08/18 01:13:59;;;;;;;;;;;;;;;24.80;60.54;101232.91;7282635;19;154081;-61
2022/08/18 01:22:15;;;;;;;;;;;;;;;24.80;60.58;101244.22;7279802;19;153655;-61
2022/08/18 01:27:30;;;;;;;;;;;;;;;24.76;60.73;101248.84;7282052;19;152924;-61
2022/08/18 01:30:02;;;;;;;;;;;;;;;24.78;60.67;101238.88;7282283;19;152309;-61
2022/08/18 01:32:29;;;;;;;;;;;;;;;24.75;60.94;101248.03;7291024;19;152071;-61
2022/08/18 01:34:56;;;;;;;;;;;;;;;24.81;60.46;101245.84;7279645;19;154922;-61
2022/08/18 01:37:23;;;;;;;;;;;;;;;24.86;60.79;101259.00;7280189;19;152399;-61
2022/08/18 01:39:50;;;;;;;;;;;;;;;24.77;60.70;101251.34;7283587;19;153314;-61
2022/08/18 01:42:38;;;;;;;;;;;;;;;24.76;60.82;101246.84;7279817;19;155108;-61
2022/08/18 01:45:06;;;;;;;;;;;;;;;24.78;60.73;101241.72;7282712;19;153144;-61
2022/08/18 01:47:34;;;;;;;;;;;;;;;24.82;60.55;101241.88;7283295;19;152804;-61
2022/08/18 01:50:14;;;;;;;;;;;;;;;24.78;60.24;101238.06;7277946;19;153230;-61
2022/08/18 01:52:41;;;;;;;;;;;;;;;24.78;60.51;101243.69;7282507;19;152013;-61
2022/08/18 01:55:08;;;;;;;;;;;;;;;24.75;60.58;101248.03;7287734;19;152954;-61
2022/08/18 01:57:41;;;;;;;;;;;;;;;24.76;60.53;101252.50;7279639;19;152378;-61
2022/08/18 02:00:10;;;;;;;;;;;;;;;24.76;60.30;101257.31;7282003;19;153686;-61
2022/08/18 02:02:38;;;;;;;;;;;;;;;24.75;60.54;101252.84;7281662;19;152298;-61
2022/08/18 02:05:08;;;;;;;;;;;;;;;24.83;60.23;101257.69;7276951;19;152776;-61
2022/08/18 02:07:35;;;;;;;;;;;;;;;24.76;60.54;101243.19;7281233;19;153188;-61
2022/08/18 02:10:05;;;;;;;;;;;;;;;24.80;60.19;101247.84;7280162;19;152370;-61
2022/08/18 02:12:38;;;;;;;;;;;;;;;24.83;59.98;101254.84;7283381;19;154838;-61
2022/08/18 02:15:06;;;;;;;;;;;;;;;24.77;60.45;101259.00;7282330;19;152893;-61
2022/08/18 02:17:37;;;;;;;;;;;;;;;24.76;60.17;101248.84;7285786;19;154165;-61
2022/08/18 02:20:05;;;;;;;;;;;;;;;24.73;60.95;101250.34;7271993;19;152757;-61
2022/08/18 02:22:32;;;;;;;;;;;;;;;24.81;60.40;101245.84;7280571;19;153909;-60
2022/08/18 02:24:59;;;;;;;;;;;;;;;24.74;60.60;101245.53;7281698;19;152757;-61
2022/08/18 02:27:26;;;;;;;;;;;;;;;24.74;60.51;101246.38;7277762;19;153807;-61
2022/08/18 02:29:53;;;;;;;;;;;;;;;24.74;60.37;101245.53;7280466;19;152503;-61
2022/08/18 02:32:19;;;;;;;;;;;;;;;24.71;60.50;101247.00;7280528;19;152096;-61
2022/08/18 02:34:46;;;;;;;;;;;;;;;24.72;60.57;101239.34;7282846;19;153245;-61
2022/08/18 02:37:13;;;;;;;;;;;;;;;24.72;60.63;101231.72;7284545;19;152814;-61
2022/08/18 02:39:41;;;;;;;;;;;;;;;24.72;60.58;101231.72;7296831;19;152495;-61
2022/08/18 02:42:08;;;;;;;;;;;;;;;24.75;60.13;101231.06;7286802;19;154276;-61
2022/08/18 02:44:35;;;;;;;;;;;;;;;24.71;60.71;101234.91;7287237;19;153245;-61
2022/08/18 02:47:01;;;;;;;;;;;;;;;24.72;60.64;101231.72;7288784;19;152571;-61
2022/08/18 02:49:28;;;;;;;;;;;;;;;24.74;60.32;101234.22;7282986;19;153743;-61
2022/08/18 02:51:55;;;;;;;;;;;;;;;24.74;60.48;101242.69;7288492;19;153112;-61
2022/08/18 02:54:22;;;;;;;;;;;;;;;24.70;60.59;101238.88;7286722;19;153553;-61
2022/08/18 02:56:50;;;;;;;;;;;;;;;24.70;60.56;101245.38;7284730;19;153938;-61
2022/08/18 02:59:19;;;;;;;;;;;;;;;24.71;60.41;101241.34;7294722;19;151972;-61
2022/08/18 03:01:48;;;;;;;;;;;;;;;24.70;60.88;101244.53;7286194;19;153227;-61
2022/08/18 03:04:18;;;;;;;;;;;;;;;24.69;60.43;101249.34;7282781;19;152754;-60
2022/08/18 03:06:50;;;;;;;;;;;;;;;24.67;60.91;101243.19;7287213;19;153233;-61
2022/08/18 03:09:20;;;;;;;;;;;;;;;24.70;60.59;101241.69;7285570;19;154145;-61
2022/08/18 03:11:51;;;;;;;;;;;;;;;24.70;60.52;101245.38;7285491;19;152666;-61
2022/08/18 03:14:18;;;;;;;;;;;;;;;24.68;60.45;101250.50;7287710;19;153248;-61
2022/08/18 03:16:46;;;;;;;;;;;;;;;24.71;60.26;101249.03;7284789;19;154063;-61
2022/08/18 03:19:22;;;;;;;;;;;;;;;24.69;60.62;101245.69;7284182;19;152864;-61
2022/08/18 03:21:49;;;;;;;;;;;;;;;24.69;60.66;101242.84;7293466;19;152542;-61
2022/08/18 03:24:17;;;;;;;;;;;;;;;24.67;60.47;101234.69;7286035;19;151983;-61
2022/08/18 03:26:49;;;;;;;;;;;;;;;24.67;60.58;101243.19;7286775;19;154278;-61
2022/08/18 03:29:15;;;;;;;;;;;;;;;24.67;60.94;101242.34;7283966;19;153931;-61
2022/08/18 03:31:43;;;;;;;;;;;;;;;24.71;60.34;101241.34;7285813;19;151833;-61
2022/08/18 03:34:10;;;;;;;;;;;;;;;24.66;60.60;101249.19;7283244;19;153283;-61
2022/08/18 03:36:38;;;;;;;;;;;;;;;24.65;60.90;101253.16;7284382;19;153634;-61
2022/08/18 03:39:06;;;;;;;;;;;;;;;24.66;60.77;101249.19;7284630;19;152474;-61
2022/08/18 03:41:34;;;;;;;;;;;;;;;24.65;60.77;101253.16;7287035;19;152581;-61
2022/08/18 03:44:22;;;;;;;;;;;;;;;24.67;60.55;101248.81;7291477;19;156855;-61
2022/08/18 03:46:49;;;;;;;;;;;;;;;24.67;60.43;101243.19;7285448;19;153713;-61
2022/08/18 03:49:17;;;;;;;;;;;;;;;24.67;60.44;101237.53;7283132;19;154097;-61
2022/08/18 03:51:47;;;;;;;;;;;;;;;24.70;60.30;101234.06;7285421;19;153182;-61
2022/08/18 03:54:15;;;;;;;;;;;;;;;24.66;60.62;101233.06;7286232;19;153530;-61
2022/08/18 03:56:43;;;;;;;;;;;;;;;24.67;60.78;101229.03;7284611;19;153229;-61
2022/08/18 03:59:12;;;;;;;;;;;;;;;24.68;60.41;101227.88;7285894;19;151881;-61
2022/08/18 04:01:40;;;;;;;;;;;;;;;24.66;60.63;101235.88;7286443;19;152697;-61
2022/08/18 04:04:09;;;;;;;;;;;;;;;24.70;60.66;101224.75;7280361;19;154269;-61
2022/08/18 04:06:39;;;;;;;;;;;;;;;24.65;60.53;101228.56;7289949;19;151978;-61
2022/08/18 04:09:08;;;;;;;;;;;;;;;24.67;60.43;101233.88;7285439;19;153754;-61
2022/08/18 04:11:36;;;;;;;;;;;;;;;24.71;60.15;101234.91;7286222;19;152266;-61
2022/08/18 04:14:04;;;;;;;;;;;;;;;24.67;60.47;101231.03;7286855;19;152970;-61
2022/08/18 04:16:32;;;;;;;;;;;;;;;24.67;60.27;101231.03;7284019;19;154663;-61
2022/08/18 04:19:02;;;;;;;;;;;;;;;24.66;60.33;101226.56;7284048;19;154913;-61
2022/08/18 04:21:33;;;;;;;;;;;;;;;24.65;60.69;101222.91;7286639;19;152575;-61
2022/08/18 04:24:03;;;;;;;;;;;;;;;24.65;60.39;101227.72;7283444;19;154273;-61
2022/08/18 04:26:31;;;;;;;;;;;;;;;24.67;60.31;101226.22;7285488;19;152206;-61
2022/08/18 04:29:01;;;;;;;;;;;;;;;24.64;60.47;101229.72;7293519;19;153314;-61
2022/08/18 04:31:29;;;;;;;;;;;;;;;24.64;60.48;101229.72;7286398;19;152316;-61
2022/08/18 04:33:57;;;;;;;;;;;;;;;24.61;60.88;101226.72;7282945;19;152038;-60
2022/08/18 04:36:25;;;;;;;;;;;;;;;24.63;60.75;101230.03;7283492;19;153416;-61
2022/08/18 04:38:52;;;;;;;;;;;;;;;24.63;60.42;101227.22;7282555;19;152573;-61
2022/08/18 04:41:26;;;;;;;;;;;;;;;24.62;60.52;101225.56;7284388;19;153081;-61
2022/08/18 04:43:57;;;;;;;;;;;;;;;24.60;60.57;101228.72;7283575;19;153509;-59
2022/08/18 04:46:24;;;;;;;;;;;;;;;24.60;60.70;101231.53;7285903;19;152167;-60
2022/08/18 04:48:51;;;;;;;;;;;;;;;24.66;60.30;101229.41;7281614;19;152652;-61
2022/08/18 04:51:19;;;;;;;;;;;;;;;24.60;60.61;101225.06;7291133;19;154784;-60
2022/08/18 04:54:06;;;;;;;;;;;;;;;24.62;60.66;101222.75;7285056;19;156169;-60
2022/08/18 04:56:35;;;;;;;;;;;;;;;24.59;60.39;101232.69;7281792;19;154139;-60
2022/08/18 04:59:07;;;;;;;;;;;;;;;24.57;60.64;101220.06;7285406;19;151967;-60
2022/08/18 05:01:35;;;;;;;;;;;;;;;24.62;60.36;101229.19;7287279;19;152670;-60
2022/08/18 05:04:02;;;;;;;;;;;;;;;24.59;60.53;101221.41;7279416;19;152578;-60
2022/08/18 05:06:30;;;;;;;;;;;;;;;24.58;60.39;101225.38;7282901;19;153126;-60
2022/08/18 05:08:58;;;;;;;;;;;;;;;24.59;60.90;101218.56;7283685;19;154124;-60
2022/08/18 05:11:33;;;;;;;;;;;;;;;24.56;60.76;101224.88;7291594;19;154666;-61
2022/08/18 05:14:04;;;;;;;;;;;;;;;24.60;60.38;101228.72;7284599;19;152565;-61
2022/08/18 05:16:35;;;;;;;;;;;;;;;24.57;60.23;101223.72;7282282;19;152868;-60
2022/08/18 05:19:15;;;;;;;;;;;;;;;24.59;60.58;101231.84;7281088;19;153130;-60
2022/08/18 05:21:45;;;;;;;;;;;;;;;24.63;60.22;101232.88;7284185;19;152717;-60
2022/08/18 05:24:17;;;;;;;;;;;;;;;24.59;60.53;101232.69;7282367;19;154619;-60
2022/08/18 05:26:45;;;;;;;;;;;;;;;24.58;60.88;101228.19;7284539;19;152619;-60
2022/08/18 05:29:12;;;;;;;;;;;;;;;24.60;60.53;101225.06;7283454;19;153011;-60
2022/08/18 05:31:45;;;;;;;;;;;;;;;24.59;60.41;101231.84;7284300;19;154114;-60
2022/08/18 05:34:12;;;;;;;;;;;;;;;24.61;60.60;101223.91;7289674;19;152226;-60
2022/08/18 05:36:45;;;;;;;;;;;;;;;24.60;61.20;101222.22;7283374;19;154249;-60
2022/08/18 05:39:18;;;;;;;;;;;;;;;24.62;60.29;101231.22;7278917;19;152333;-60
2022/08/18 05:41:48;;;;;;;;;;;;;;;24.59;60.90;101223.38;7284688;19;152618;-60
2022/08/18 05:44:17;;;;;;;;;;;;;;;24.58;61.04;101225.38;7281628;19;152724;-60
2022/08/18 05:46:49;;;;;;;;;;;;;;;24.58;60.71;101224.53;7282155;19;152263;-60
2022/08/18 05:49:16;;;;;;;;;;;;;;;24.58;60.88;101227.38;7281563;19;153772;-60
2022/08/18 05:51:51;;;;;;;;;;;;;;;24.61;60.88;101238.03;7280444;19;152814;-60
2022/08/18 05:57:09;;;;;;;;;;;;;;;24.61;61.03;101233.22;7287870;19;154353;-60
2022/08/18 05:59:38;;;;;;;;;;;;;;;24.60;60.84;101233.53;7282636;19;152073;-60
2022/08/18 06:02:06;;;;;;;;;;;;;;;24.61;60.66;101232.38;7283986;19;152930;-60
2022/08/18 06:04:38;;;;;;;;;;;;;;;24.60;60.88;101230.72;7275944;19;154275;-60
2022/08/18 06:07:08;;;;;;;;;;;;;;;24.59;60.76;101234.69;7281042;19;152677;-61
2022/08/18 06:09:39;;;;;;;;;;;;;;;24.60;60.39;101233.53;7281245;19;152903;-60
2022/08/18 06:12:16;;;;;;;;;;;;;;;24.62;60.30;101222.75;7281784;19;152563;-60
2022/08/18 06:14:43;;;;;;;;;;;;;;;24.58;60.87;101227.38;7281366;19;152330;-60
2022/08/18 06:17:12;;;;;;;;;;;;;;;24.60;60.71;101225.06;7281663;19;152964;-60
2022/08/18 06:19:54;;;;;;;;;;;;;;;24.59;60.36;101223.38;7284558;19;154201;-61
2022/08/18 06:22:32;;;;;;;;;;;;;;;24.59;60.67;101224.22;7282796;19;152571;-60
2022/08/18 06:25:14;;;;;;;;;;;;;;;24.60;61.03;101230.72;7280805;19;153944;-60
2022/08/18 06:27:58;;;;;;;;;;;;;;;24.56;60.94;101224.06;7279964;19;153700;-60
2022/08/18 06:30:46;;;;;;;;;;;;;;;24.55;60.76;101226.03;7282357;19;153519;-60
2022/08/18 06:33:31;;;;;;;;;;;;;;;24.55;61.06;101228.88;7280324;19;154281;-60
2022/08/18 06:36:02;;;;;;;;;;;;;;;24.58;60.89;101230.19;7278296;19;152214;-60
2022/08/18 06:38:37;;;;;;;;;;;;;;;24.59;60.94;101232.69;7279334;19;153836;-60
2022/08/18 06:41:23;;;;;;;;;;;;;;;24.59;60.95;101232.69;7281944;19;153320;-60
2022/08/18 06:44:08;;;;;;;;;;;;;;;24.60;60.84;101219.41;7288901;19;152677;-60
2022/08/18 06:46:52;;;;;;;;;;;;;;;24.56;60.74;101230.53;7278547;19;153293;-60
2022/08/18 06:49:31;;;;;;;;;;;;;;;24.58;60.74;101230.19;7276981;19;153841;-61
2022/08/18 06:51:58;;;;;;;;;;;;;;;24.60;60.33;101228.72;7280288;19;152406;-61
2022/08/18 06:54:26;;;;;;;;;;;;;;;24.58;60.59;101227.38;7280413;19;153862;-60
2022/08/18 06:56:54;;;;;;;;;;;;;;;24.59;60.28;101231.84;7278324;19;151952;-60
2022/08/18 06:59:27;;;;;;;;;;;;;;;24.55;60.71;101228.88;7278571;19;152345;-60
2022/08/18 07:02:00;;;;;;;;;;;;;;;24.54;61.01;101229.19;7278536;19;153267;-60
2022/08/18 07:04:30;;;;;;;;;;;;;;;24.53;60.69;101230.38;7274552;19;152864;-60
2022/08/18 07:06:57;;;;;;;;;;;;;;;24.60;60.79;101230.72;7283092;19;152290;-60
2022/08/18 07:09:31;;;;;;;;;;;;;;;24.58;60.57;101231.03;7281063;19;152542;-60
2022/08/18 07:12:00;;;;;;;;;;;;;;;24.58;60.60;101225.38;7280642;19;152754;-60
2022/08/18 07:14:27;;;;;;;;;;;;;;;24.56;60.76;101233.38;7280201;19;153271;-60
2022/08/18 07:17:08;;;;;;;;;;;;;;;24.54;61.14;101234.84;7279935;19;151908;-60
2022/08/18 07:19:35;;;;;;;;;;;;;;;24.53;60.95;101231.16;7272924;19;152900;-60
2022/08/18 07:22:05;;;;;;;;;;;;;;;24.55;61.09;101233.69;7285286;19;152546;-62
2022/08/18 07:24:36;;;;;;;;;;;;;;;24.60;60.81;101242.00;7286708;19;152440;-60
2022/08/18 07:27:02;;;;;;;;;;;;;;;24.56;60.78;101243.81;7293697;19;154485;-60
2022/08/18 07:29:31;;;;;;;;;;;;;;;24.58;61.13;101247.97;7286873;19;151918;-61
2022/08/18 07:32:01;;;;;;;;;;;;;;;24.56;61.19;101239.00;7288437;19;154443;-60
2022/08/18 07:34:35;;;;;;;;;;;;;;;24.60;60.59;101247.66;7282333;19;153975;-60
2022/08/18 07:37:17;;;;;;;;;;;;;;;24.58;60.60;101247.13;7284822;19;151949;-60
2022/08/18 07:39:49;;;;;;;;;;;;;;;24.58;60.37;101250.81;7285225;19;153123;-60
2022/08/18 07:42:34;;;;;;;;;;;;;;;24.56;60.96;101250.31;7284351;19;153862;-60
2022/08/18 07:45:29;;;;;;;;;;;;;;;24.60;60.53;101245.66;7285540;19;152245;-60
2022/08/18 07:48:03;;;;;;;;;;;;;;;24.61;60.65;101252.16;7287615;19;152995;-60
2022/08/18 07:51:17;;;;;;;;;;;;;;;24.61;60.25;101250.16;7289776;19;152573;-60
2022/08/18 07:53:51;;;;;;;;;;;;;;;24.64;60.67;101254.31;7283141;19;153192;-60
2022/08/18 07:56:36;;;;;;;;;;;;;;;24.59;60.74;101260.94;7284757;19;153308;-61
2022/08/18 07:59:29;;;;;;;;;;;;;;;24.56;60.74;101253.13;7284845;19;154833;-61
2022/08/18 08:01:59;;;;;;;;;;;;;;;24.57;60.77;101256.81;7284655;19;151997;-60
2022/08/18 08:04:33;;;;;;;;;;;;;;;24.57;60.69;101252.00;7280098;19;152698;-60
2022/08/18 08:07:03;;;;;;;;;;;;;;;24.56;60.88;101253.13;7286831;19;153288;-60
2022/08/18 08:09:50;;;;;;;;;;;;;;;24.57;60.90;101259.63;7285694;19;152654;-60
2022/08/18 08:12:28;;;;;;;;;;;;;;;24.62;60.33;101265.94;7284678;19;154280;-60
2022/08/18 08:14:59;;;;;;;;;;;;;;;24.61;60.58;101266.28;7293336;19;151702;-60
2022/08/18 08:17:33;;;;;;;;;;;;;;;24.57;60.98;101256.81;7285144;19;155121;-60
2022/08/18 08:20:08;;;;;;;;;;;;;;;24.58;60.76;101258.44;7280218;19;151964;-60
2022/08/18 08:22:54;;;;;;;;;;;;;;;24.57;60.66;101251.16;7282858;19;153407;-61
2022/08/18 08:25:24;;;;;;;;;;;;;;;24.64;60.48;101252.31;7284504;19;153912;-60
2022/08/18 08:28:30;;;;;;;;;;;;;;;24.63;60.40;101256.31;7285089;19;152585;-60
2022/08/18 08:31:10;;;;;;;;;;;;;;;24.58;60.87;101247.13;7283511;19;152332;-60
2022/08/18 08:34:04;;;;;;;;;;;;;;;24.53;61.25;101252.97;7281401;19;152198;-60
2022/08/18 08:36:36;;;;;;;;;;;;;;;24.53;60.86;101256.59;7284607;19;151704;-61
2022/08/18 08:39:23;;;;;;;;;;;;;;;24.52;61.13;101259.78;7287701;19;152854;-61
2022/08/18 08:41:56;;;;;;;;;;;;;;;24.52;60.70;101254.97;7284623;19;152393;-60
2022/08/18 08:44:58;;;;;;;;;;;;;;;24.51;60.72;101258.09;7285513;19;155283;-61
2022/08/18 08:47:28;;;;;;;;;;;;;;;24.50;61.10;101248.78;7283900;19;153333;-60
2022/08/18 08:50:15;;;;;;;;;;;;;;;24.52;61.02;101254.13;7279733;19;152705;-60
2022/08/18 08:52:46;;;;;;;;;;;;;;;24.53;60.76;101255.78;7283903;19;152082;-60
2022/08/18 08:55:16;;;;;;;;;;;;;;;24.53;61.01;101250.16;7283859;19;152591;-60
2022/08/18 08:58:11;;;;;;;;;;;;;;;24.54;60.66;101255.44;7284090;19;152861;-60
2022/08/18 09:00:39;;;;;;;;;;;;;;;24.57;60.26;101251.16;7282672;19;151952;-61
2022/08/18 09:03:12;;;;;;;;;;;;;;;24.58;60.75;101258.44;7288131;19;154941;-61
2022/08/18 09:05:42;;;;;;;;;;;;;;;24.56;60.42;101257.94;7280908;19;152347;-61
2022/08/18 09:08:18;;;;;;;;;;;;;;;24.57;60.54;101254.81;7284179;19;152997;-60
2022/08/18 09:11:00;;;;;;;;;;;;;;;24.58;60.33;101252.78;7284389;19;153014;-61
2022/08/18 09:13:45;;;;;;;;;;;;;;;24.55;60.79;101251.47;7285674;19;153789;-60
2022/08/18 09:16:21;;;;;;;;;;;;;;;24.60;60.82;101259.78;7282724;19;152228;-60
2022/08/18 09:19:12;;;;;;;;;;;;;;;24.61;60.11;101247.34;7276320;19;152780;-60
2022/08/18 09:21:43;;;;;;;;;;;;;;;24.59;60.63;101245.97;7282269;19;153848;-61
2022/08/18 09:24:17;;;;;;;;;;;;;;;24.55;60.31;101251.47;7279452;19;156001;-60
2022/08/18 09:27:03;;;;;;;;;;;;;;;24.56;60.34;101253.13;7288711;19;152510;-60
2022/08/18 09:29:36;;;;;;;;;;;;;;;24.61;59.90;101253.00;7279082;19;153933;-60
2022/08/18 09:32:21;;;;;;;;;;;;;;;24.59;60.05;101245.97;7281396;19;152435;-60
2022/08/18 09:35:04;;;;;;;;;;;;;;;24.57;60.02;101251.16;7279283;19;153328;-60
2022/08/18 09:37:46;;;;;;;;;;;;;;;24.57;59.87;101254.81;7282661;19;154309;-60
2022/08/18 09:43:26;;;;;;;;;;;;;;;24.59;60.12;101251.63;7281694;19;155455;-60
2022/08/18 09:45:56;;;;;;;;;;;;;;;24.62;59.64;101253.81;7281821;19;153104;-60
2022/08/18 09:48:37;;;;;;;;;;;;;;;24.60;59.51;101254.16;7290976;19;152154;-60
2022/08/18 09:51:15;;;;;;;;;;;;;;;24.58;59.94;101247.97;7279799;19;153452;-60
2022/08/18 09:53:46;;;;;;;;;;;;;;;24.59;60.05;101246.81;7283699;19;151848;-60
2022/08/18 09:56:13;;;;;;;;;;;;;;;24.63;59.49;101247.00;7284960;19;153468;-60
2022/08/18 09:59:01;;;;;;;;;;;;;;;24.64;59.02;101231.72;7281384;19;152882;-60
2022/08/18 10:01:38;;;;;;;;;;;;;;;24.64;58.85;101226.06;7282513;19;154827;-61
2022/08/18 10:04:15;;;;;;;;;;;;;;;24.68;58.83;101238.34;7279004;19;153925;-60
2022/08/18 10:07:13;;;;;;;;;;;;;;;24.74;58.14;101231.41;7281655;19;152420;-60
2022/08/18 10:10:00;;;;;;;;;;;;;;;24.75;57.93;101230.25;7282629;19;153307;-60
2022/08/18 10:12:53;;;;;;;;;;;;;;;24.71;58.22;101224.41;7289100;19;153840;-60
2022/08/18 10:15:28;;;;;;;;;;;;;;;24.72;58.29;101217.59;7282882;19;152748;-61
2022/08/18 10:18:15;;;;;;;;;;;;;;;24.69;58.70;101229.56;7283385;19;153979;-60
2022/08/18 10:21:22;;;;;;;;;;;;;;;24.74;58.59;101217.28;7276913;19;153320;-60
2022/08/18 10:23:55;;;;;;;;;;;;;;;24.73;58.21;101216.44;7278682;19;152674;-60
2022/08/18 10:26:41;;;;;;;;;;;;;;;24.71;57.49;101213.09;7278944;19;156460;-60
2022/08/18 10:29:26;;;;;;;;;;;;;;;24.73;57.35;101218.41;7280247;19;153061;-61
2022/08/18 10:31:55;;;;;;;;;;;;;;;24.71;56.91;101215.91;7283501;19;151900;-61
2022/08/18 10:34:51;;;;;;;;;;;;;;;24.72;56.86;101206.28;7279839;19;156301;-60
2022/08/18 10:37:33;;;;;;;;;;;;;;;24.74;56.51;101205.97;7286359;19;154141;-60
2022/08/18 10:40:12;;;;;;;;;;;;;;;24.70;56.90;101200.16;7279834;19;152977;-60
2022/08/18 10:42:41;;;;;;;;;;;;;;;24.70;57.00;101207.78;7280868;19;153254;-60
2022/08/18 10:45:18;;;;;;;;;;;;;;;24.69;57.02;101208.94;7282537;19;152479;-61
2022/08/18 10:48:31;;;;;;;;;;;;;;;24.67;56.68;101203.63;7282531;19;153938;-61
2022/08/18 10:51:17;;;;;;;;;;;;;;;24.70;57.15;101204.97;7272796;19;154599;-60
2022/08/18 10:53:48;;;;;;;;;;;;;;;24.70;56.96;101197.31;7281841;19;151946;-60
2022/08/18 10:56:30;;;;;;;;;;;;;;;24.75;56.98;101193.50;7289251;19;153064;-60
2022/08/18 10:59:07;;;;;;;;;;;;;;;24.75;57.09;101197.16;7287050;19;154012;-60
2022/08/18 11:01:42;;;;;;;;;;;;;;;24.76;56.35;101195.13;7295894;19;151841;-60
2022/08/18 11:04:20;;;;;;;;;;;;;;;24.74;56.47;101200.31;7283234;19;153093;-60
2022/08/18 11:07:08;;;;;;;;;;;;;;;24.77;55.91;101200.47;7287786;19;152085;-60
2022/08/18 11:09:35;;;;;;;;;;;;;;;24.80;56.30;101193.34;7289290;19;152978;-60
2022/08/18 11:12:07;;;;;;;;;;;;;;;24.78;55.99;101190.00;7287748;19;153897;-60
2022/08/18 11:14:44;;;;;;;;;;;;;;;24.82;55.76;101182.53;7285421;19;153136;-60
2022/08/18 11:17:24;;;;;;;;;;;;;;;24.86;55.57;101177.91;7288237;19;152248;-60
2022/08/18 11:19:52;;;;;;;;;;;;;;;24.89;55.82;101179.25;7281776;19;152832;-60
2022/08/18 11:22:31;;;;;;;;;;;;;;;24.91;55.63;101182.56;7286873;19;152052;-60
2022/08/18 11:25:00;;;;;;;;;;;;;;;24.92;56.10;101172.91;7294881;19;152970;-60
2022/08/18 11:27:32;;;;;;;;;;;;;;;24.93;55.64;101169.75;7286588;19;152467;-60
2022/08/18 11:30:02;;;;;;;;;;;;;;;24.93;55.87;101161.28;7271805;19;152774;-60
2022/08/18 11:32:30;;;;;;;;;;;;;;;24.97;56.12;101164.25;7275417;19;153774;-60
2022/08/18 11:34:57;;;;;;;;;;;;;;;24.98;55.85;101163.94;7283988;19;152251;-60
2022/08/18 11:37:25;;;;;;;;;;;;;;;25.00;55.45;101160.75;7286393;19;153529;-60
2022/08/18 11:39:54;;;;;;;;;;;;;;;25.01;55.59;101151.13;7284762;19;153367;-60
2022/08/18 11:42:32;;;;;;;;;;;;;;;25.02;55.52;101153.63;7285487;19;152223;-60
2022/08/18 11:45:19;;;;;;;;;;;;;;;25.03;55.46;101152.44;7284866;19;154279;-60
2022/08/18 11:47:59;;;;;;;;;;;;;;;25.05;55.30;101152.13;7292758;19;152178;-60
2022/08/18 11:50:27;;;;;;;;;;;;;;;25.08;55.21;101149.44;7283312;19;152688;-60
2022/08/18 11:52:55;;;;;;;;;;;;;;;25.09;54.75;101148.28;7282517;19;153892;-60
2022/08/18 11:55:34;;;;;;;;;;;;;;;25.08;54.73;101146.63;7285725;19;153406;-60
2022/08/18 11:58:04;;;;;;;;;;;;;;;25.09;54.62;101144.63;7285917;19;153259;-60
2022/08/18 12:00:52;;;;;;;;;;;;;;;25.13;54.29;101140.78;7283607;19;153377;-60
2022/08/18 12:03:19;;;;;;;;;;;;;;;25.14;54.99;101148.13;7285321;19;152743;-60
2022/08/18 12:05:48;;;;;;;;;;;;;;;25.17;54.85;101161.56;7282829;19;152203;-60
2022/08/18 12:08:35;;;;;;;;;;;;;;;25.16;54.84;101145.78;7293539;19;153805;-61
2022/08/18 12:11:34;;;;;;;;;;;;;;;25.18;54.82;101139.78;7284673;19;151882;-60
2022/08/18 12:14:09;;;;;;;;;;;;;;;25.20;54.88;101140.28;7284093;19;152353;-60
2022/08/18 12:16:56;;;;;;;;;;;;;;;25.22;54.90;101143.59;7285040;19;152678;-60
2022/08/18 12:19:27;;;;;;;;;;;;;;;25.25;54.98;101137.28;7282956;19;153708;-60
2022/08/18 12:21:58;;;;;;;;;;;;;;;25.27;54.74;101134.94;7284659;19;152886;-60
2022/08/18 12:24:28;;;;;;;;;;;;;;;25.27;54.75;101139.75;7283572;19;152057;-60
2022/08/18 12:27:04;;;;;;;;;;;;;;;25.23;55.17;101137.63;7285965;19;152075;-60
2022/08/18 12:29:47;;;;;;;;;;;;;;;25.25;54.43;101134.47;7284663;19;152937;-60
2022/08/18 12:32:15;;;;;;;;;;;;;;;25.30;54.36;101133.44;7294120;19;152745;-60
2022/08/18 12:35:03;;;;;;;;;;;;;;;25.29;54.47;101128.94;7280817;19;155017;-60
2022/08/18 12:37:38;;;;;;;;;;;;;;;25.29;54.85;101126.13;7284835;19;153473;-60
2022/08/18 12:40:25;;;;;;;;;;;;;;;25.26;54.70;101107.00;7283688;19;152534;-60
2022/08/18 12:42:52;;;;;;;;;;;;;;;25.27;54.31;101114.31;7283824;19;153023;-60
2022/08/18 12:45:40;;;;;;;;;;;;;;;25.32;54.16;101102.81;7283771;19;155009;-60
2022/08/18 12:48:08;;;;;;;;;;;;;;;25.37;53.54;101122.44;7285185;19;152199;-60
2022/08/18 12:50:36;;;;;;;;;;;;;;;25.35;53.96;101114.28;7281995;19;153773;-60
2022/08/18 12:53:20;;;;;;;;;;;;;;;25.35;53.98;101113.47;7283371;19;152622;-60
2022/08/18 12:56:14;;;;;;;;;;;;;;;25.34;53.91;101106.97;7291332;19;155238;-61
2022/08/18 12:58:45;;;;;;;;;;;;;;;25.39;53.86;101115.28;7284177;19;152715;-60
2022/08/18 13:01:11;;;;;;;;;;;;;;;25.36;54.22;101104.63;7283734;19;153159;-60
2022/08/18 13:03:44;;;;;;;;;;;;;;;25.37;53.50;101097.81;7279388;19;153253;-61
2022/08/18 13:06:30;;;;;;;;;;;;;;;25.36;53.89;101112.28;7284543;19;152263;-60
2022/08/18 13:08:56;;;;;;;;;;;;;;;25.37;53.73;101111.94;7283786;19;153237;-60
2022/08/18 13:11:23;;;;;;;;;;;;;;;25.39;53.97;101100.31;7283966;19;153375;-60
2022/08/18 13:13:53;;;;;;;;;;;;;;;25.38;53.58;101099.47;7283359;19;152089;-61
2022/08/18 13:16:23;;;;;;;;;;;;;;;25.42;52.59;101085.47;7284185;19;153518;-61